createdAt,value
2018-02-24T00:00:40.554Z,28.92
2018-02-24T00:03:09.594Z,34.83
2018-02-24T00:05:37.865Z,31.55
2018-02-24T00:08:09.338Z,30.42
2018-02-24T00:10:37.617Z,35.47
2018-02-24T00:13:05.897Z,30.95
2018-02-24T00:15:34.162Z,26.65
2018-02-24T00:18:02.428Z,29.45
2018-02-24T00:20:30.688Z,28.58
2018-02-24T00:22:58.970Z,32.08
2018-02-24T00:25:27.246Z,30.60
2018-02-24T00:27:55.537Z,37.53
2018-02-24T00:30:23.795Z,29.70
2018-02-24T00:32:52.836Z,34.65
2018-02-24T00:35:21.099Z,33.10
2018-02-24T00:37:50.150Z,29.95
2018-02-24T00:40:18.425Z,33.20
2018-02-24T00:42:46.710Z,34.03
2018-02-24T00:45:14.998Z,32.33
2018-02-24T00:47:43.260Z,32.45
2018-02-24T00:50:12.300Z,35.05
2018-02-24T00:52:40.577Z,29.50
2018-02-24T00:55:08.852Z,31.70
2018-02-24T00:57:37.134Z,36.00
2018-02-24T01:00:06.176Z,35.55
2018-02-24T01:02:34.449Z,32.05
2018-02-24T01:05:02.729Z,33.17
2018-02-24T01:07:31.012Z,33.28
2018-02-24T01:09:59.293Z,33.50
2018-02-24T01:12:28.338Z,35.92
2018-02-24T01:14:56.628Z,30.85
2018-02-24T01:17:24.888Z,33.22
2018-02-24T01:19:54.122Z,32.33
2018-02-24T01:22:22.391Z,34.17
2018-02-24T01:24:50.675Z,31.98
2018-02-24T01:27:18.943Z,29.77
2018-02-24T01:29:47.993Z,31.58
2018-02-24T01:32:16.281Z,31.20
2018-02-24T01:34:44.561Z,32.33
2018-02-24T01:37:12.836Z,30.42
2018-02-24T01:39:41.123Z,31.52
2018-02-24T01:42:09.388Z,30.25
2018-02-24T01:44:38.420Z,29.23
2018-02-24T01:47:06.688Z,31.92
2018-02-24T01:49:35.741Z,32.92
2018-02-24T01:52:04.015Z,29.42
2018-02-24T01:54:32.294Z,31.10
2018-02-24T01:57:00.570Z,30.10
2018-02-24T01:59:28.863Z,28.70
2018-02-24T02:01:57.266Z,28.50
2018-02-24T02:04:25.553Z,30.92
2018-02-24T02:06:53.816Z,27.95
2018-02-24T02:09:22.851Z,29.27
2018-02-24T02:11:51.112Z,28.83
2018-02-24T02:14:20.148Z,31.62
2018-02-24T02:16:48.416Z,29.92
2018-02-24T02:19:16.864Z,30.20
2018-02-24T02:21:45.132Z,32.33
2018-02-24T02:24:13.427Z,29.02
2018-02-24T02:26:41.702Z,28.17
2018-02-24T02:29:09.990Z,26.87
2018-02-24T02:31:38.426Z,30.98
2018-02-24T02:34:06.720Z,29.42
2018-02-24T02:36:34.990Z,28.12
2018-02-24T02:39:03.272Z,28.05
2018-02-24T02:41:31.540Z,26.00
2018-02-24T02:43:59.831Z,27.05
2018-02-24T02:46:28.094Z,25.85
2018-02-24T02:48:56.374Z,25.58
2018-02-24T02:51:24.636Z,25.45
2018-02-24T02:53:53.683Z,25.83
2018-02-24T02:56:21.952Z,24.85
2018-02-24T02:58:50.234Z,23.42
2018-02-24T03:01:26.087Z,23.40
2018-02-24T03:03:55.120Z,23.42
2018-02-24T03:06:23.442Z,23.55
2018-02-24T03:08:51.717Z,21.80
2018-02-24T03:11:19.988Z,21.02
2018-02-24T03:13:48.270Z,22.58
2018-02-24T03:16:16.549Z,19.08
2018-02-24T03:18:45.594Z,19.12
2018-02-24T03:21:15.796Z,21.55
2018-02-24T03:23:44.086Z,22.90
2018-02-24T03:26:12.354Z,19.92
2018-02-24T03:28:41.387Z,23.87
2018-02-24T03:31:09.658Z,21.80
2018-02-24T03:33:38.733Z,22.30
2018-02-24T03:36:07.022Z,23.12
2018-02-24T03:38:36.274Z,22.40
2018-02-24T03:41:04.562Z,17.80
2018-02-24T03:43:32.841Z,20.55
2018-02-24T03:46:07.729Z,20.10
2018-02-24T03:48:36.002Z,21.85
2018-02-24T03:51:04.293Z,21.90
2018-02-24T03:53:32.566Z,28.98
2018-02-24T03:56:00.845Z,21.33
2018-02-24T03:58:29.321Z,19.12
2018-02-24T04:00:58.369Z,21.42
2018-02-24T04:03:27.336Z,20.08
2018-02-24T04:05:56.384Z,21.62
2018-02-24T04:08:24.648Z,17.42
2018-02-24T04:10:52.925Z,18.37
2018-02-24T04:13:21.960Z,18.35
2018-02-24T04:15:50.242Z,19.60
2018-02-24T04:18:18.503Z,19.37
2018-02-24T04:20:47.552Z,18.73
2018-02-24T04:23:15.805Z,16.85
2018-02-24T04:25:44.089Z,22.05
2018-02-24T04:28:13.125Z,20.73
2018-02-24T04:30:42.108Z,19.48
2018-02-24T04:33:11.326Z,19.90
2018-02-24T04:35:39.602Z,21.75
2018-02-24T04:38:07.865Z,23.17
2018-02-24T04:40:36.140Z,19.77
2018-02-24T04:43:04.404Z,20.85
2018-02-24T04:45:32.721Z,18.15
2018-02-24T04:48:00.989Z,18.62
2018-02-24T04:50:29.280Z,18.35
2018-02-24T04:52:57.562Z,17.02
2018-02-24T04:55:25.845Z,19.33
2018-02-24T04:57:54.124Z,16.80
2018-02-24T05:00:22.407Z,18.65
2018-02-24T05:02:50.671Z,18.80
2018-02-24T05:05:19.708Z,20.45
2018-02-24T05:07:47.986Z,15.40
2018-02-24T05:10:16.278Z,17.25
2018-02-24T05:12:44.549Z,20.50
2018-02-24T05:15:12.830Z,16.62
2018-02-24T05:17:41.874Z,13.77
2018-02-24T05:20:10.144Z,16.60
2018-02-24T05:22:38.427Z,17.00
2018-02-24T05:25:06.698Z,15.15
2018-02-24T05:27:35.729Z,16.40
2018-02-24T05:30:04.018Z,14.87
2018-02-24T05:32:32.290Z,16.00
2018-02-24T05:35:01.334Z,14.95
2018-02-24T05:37:29.590Z,16.15
2018-02-24T05:39:57.875Z,15.23
2018-02-24T05:42:26.914Z,19.75
2018-02-24T05:44:55.180Z,18.62
2018-02-24T05:47:23.448Z,13.55
2018-02-24T05:49:52.496Z,15.93
2018-02-24T05:52:32.397Z,12.52
2018-02-24T05:55:00.669Z,17.30
2018-02-24T05:57:28.931Z,13.57
2018-02-24T05:59:57.211Z,13.82
2018-02-24T06:02:26.286Z,13.50
2018-02-24T06:04:55.324Z,12.63
2018-02-24T06:07:23.597Z,12.18
2018-02-24T06:09:51.877Z,12.80
2018-02-24T06:12:20.914Z,11.43
2018-02-24T06:14:49.195Z,11.75
2018-02-24T06:17:17.478Z,11.93
2018-02-24T06:19:45.762Z,11.00
2018-02-24T06:22:14.040Z,13.45
2018-02-24T06:24:42.326Z,12.88
2018-02-24T06:27:11.357Z,12.85
2018-02-24T06:29:39.617Z,10.50
2018-02-24T06:32:08.647Z,10.15
2018-02-24T06:34:36.912Z,11.10
2018-02-24T06:37:05.188Z,11.07
2018-02-24T06:39:34.223Z,11.15
2018-02-24T06:42:02.498Z,10.80
2018-02-24T06:44:30.754Z,10.10
2018-02-24T06:47:00.027Z,11.45
2018-02-24T06:49:28.292Z,10.65
2018-02-24T06:51:56.577Z,11.05
2018-02-24T06:54:24.865Z,11.05
2018-02-24T06:56:53.320Z,11.63
2018-02-24T06:59:21.580Z,10.30
2018-02-24T07:01:49.857Z,10.40
2018-02-24T07:04:18.125Z,10.70
2018-02-24T07:06:46.412Z,11.88
2018-02-24T07:09:14.686Z,11.65
2018-02-24T07:11:43.716Z,11.02
2018-02-24T07:14:12.000Z,11.35
2018-02-24T07:16:40.287Z,12.23
2018-02-24T07:19:08.571Z,12.50
2018-02-24T07:21:36.844Z,12.13
2018-02-24T07:24:05.881Z,11.57
2018-02-24T07:26:34.166Z,13.13
2018-02-24T07:29:02.430Z,10.75
2018-02-24T07:31:31.476Z,12.35
2018-02-24T07:33:59.748Z,11.50
2018-02-24T07:36:28.025Z,12.35
2018-02-24T07:39:01.429Z,11.15
2018-02-24T07:41:33.209Z,12.50
2018-02-24T07:44:01.482Z,11.77
2018-02-24T07:46:30.531Z,12.50
2018-02-24T07:48:58.798Z,15.52
2018-02-24T07:51:27.068Z,12.00
2018-02-24T07:53:55.344Z,12.55
2018-02-24T07:56:25.293Z,11.23
2018-02-24T07:58:53.572Z,11.88
2018-02-24T08:01:22.618Z,11.68
2018-02-24T08:03:51.791Z,10.65
2018-02-24T08:06:20.069Z,13.60
2018-02-24T08:08:49.092Z,12.90
2018-02-24T08:11:17.373Z,13.35
2018-02-24T08:13:45.636Z,12.50
2018-02-24T08:16:13.900Z,13.68
2018-02-24T08:18:42.169Z,11.70
2018-02-24T08:21:10.431Z,11.80
2018-02-24T08:23:38.701Z,12.00
2018-02-24T08:26:07.756Z,12.85
2018-02-24T08:28:37.944Z,11.90
2018-02-24T08:31:07.005Z,12.52
2018-02-24T08:33:35.268Z,13.50
2018-02-24T08:36:04.303Z,12.60
2018-02-24T08:38:32.563Z,14.00
2018-02-24T08:41:00.847Z,12.82
2018-02-24T08:43:29.118Z,13.75
2018-02-24T08:45:57.394Z,15.10
2018-02-24T08:48:26.433Z,16.20
2018-02-24T08:50:54.714Z,14.00
2018-02-24T08:53:22.982Z,18.75
2018-02-24T08:55:51.260Z,21.02
2018-02-24T08:58:20.301Z,17.50
2018-02-24T09:00:48.573Z,20.02
2018-02-24T09:03:16.850Z,18.77
2018-02-24T09:05:45.906Z,17.62
2018-02-24T09:08:14.170Z,22.13
2018-02-24T09:10:42.461Z,20.83
2018-02-24T09:13:10.720Z,19.90
2018-02-24T09:15:39.764Z,20.02
2018-02-24T09:18:08.037Z,28.75
2018-02-24T09:20:36.307Z,23.23
2018-02-24T09:23:05.342Z,25.17
2018-02-24T09:25:33.612Z,20.95
2018-02-24T09:28:01.886Z,25.98
2018-02-24T09:30:30.924Z,19.98
2018-02-24T09:32:59.200Z,22.42
2018-02-24T09:35:27.481Z,21.45
2018-02-24T09:37:55.762Z,26.20
2018-02-24T09:40:24.033Z,25.77
2018-02-24T09:42:53.075Z,25.75
2018-02-24T09:45:21.825Z,24.70
2018-02-24T09:47:50.095Z,25.40
2018-02-24T09:50:18.394Z,27.67
2018-02-24T09:52:46.667Z,19.85
2018-02-24T09:55:14.944Z,22.40
2018-02-24T09:57:43.234Z,19.10
2018-02-24T10:00:11.505Z,22.45
2018-02-24T10:02:39.779Z,17.80
2018-02-24T10:05:08.049Z,19.05
2018-02-24T10:07:37.080Z,17.75
2018-02-24T10:10:05.352Z,19.23
2018-02-24T10:12:34.393Z,19.62
2018-02-24T10:15:02.665Z,18.30
2018-02-24T10:17:30.929Z,16.75
2018-02-24T10:19:59.962Z,17.35
2018-02-24T10:22:28.242Z,21.02
2018-02-24T10:24:56.561Z,14.70
2018-02-24T10:27:24.797Z,16.10
2018-02-24T10:29:53.819Z,14.70
2018-02-24T10:32:22.117Z,15.43
2018-02-24T10:34:50.388Z,18.70
2018-02-24T10:37:18.655Z,15.60
2018-02-24T10:39:46.920Z,17.90
2018-02-24T10:42:15.200Z,15.80
2018-02-24T10:44:43.471Z,18.05
2018-02-24T10:47:11.734Z,19.73
2018-02-24T10:49:40.416Z,21.00
2018-02-24T10:52:09.453Z,17.42
2018-02-24T10:54:37.713Z,17.37
2018-02-24T10:57:06.744Z,15.63
2018-02-24T10:59:35.008Z,17.40
2018-02-24T11:02:04.036Z,16.55
2018-02-24T11:04:32.296Z,17.92
2018-02-24T11:07:01.328Z,16.50
2018-02-24T11:09:29.580Z,17.05
2018-02-24T11:11:57.849Z,21.45
2018-02-24T11:14:26.115Z,15.90
2018-02-24T11:16:54.383Z,18.55
2018-02-24T11:19:22.646Z,16.33
2018-02-24T11:21:51.677Z,16.00
2018-02-24T11:24:19.937Z,14.38
2018-02-24T11:26:48.982Z,16.30
2018-02-24T11:29:17.237Z,24.45
2018-02-24T11:31:46.289Z,23.33
2018-02-24T11:34:14.547Z,14.32
2018-02-24T11:36:42.829Z,18.30
2018-02-24T11:39:11.099Z,17.10
2018-02-24T11:41:39.370Z,16.25
2018-02-24T11:44:07.625Z,13.13
2018-02-24T11:46:36.675Z,14.95
2018-02-24T11:49:04.946Z,11.95
2018-02-24T11:51:33.245Z,10.88
2018-02-24T11:54:01.504Z,10.32
2018-02-24T11:56:29.789Z,18.70
2018-02-24T11:58:58.062Z,12.18
2018-02-24T12:01:26.320Z,9.80
2018-02-24T12:03:55.359Z,10.48
2018-02-24T12:06:23.617Z,10.73
2018-02-24T12:08:52.657Z,10.63
2018-02-24T12:11:21.690Z,11.25
2018-02-24T12:13:51.585Z,12.85
2018-02-24T12:16:19.849Z,10.15
2018-02-24T12:18:48.116Z,10.13
2018-02-24T12:21:16.405Z,12.13
2018-02-24T12:23:45.463Z,11.70
2018-02-24T12:26:13.729Z,12.93
2018-02-24T12:28:42.235Z,11.38
2018-02-24T12:31:14.113Z,9.23
2018-02-24T12:33:42.551Z,11.07
2018-02-24T12:36:11.588Z,13.90
2018-02-24T12:38:39.865Z,9.05
2018-02-24T12:41:08.892Z,9.90
2018-02-24T12:43:37.243Z,9.15
2018-02-24T12:46:05.457Z,10.63
2018-02-24T12:48:34.515Z,12.93
2018-02-24T12:51:02.787Z,10.27
2018-02-24T12:53:31.049Z,9.05
2018-02-24T12:55:59.348Z,9.15
2018-02-24T12:58:27.620Z,14.15
2018-02-24T13:00:55.887Z,12.25
2018-02-24T13:03:24.916Z,9.65
2018-02-24T13:05:53.181Z,9.98
2018-02-24T13:08:22.277Z,9.30
2018-02-24T13:10:50.539Z,13.75
2018-02-24T13:13:18.813Z,10.27
2018-02-24T13:15:47.088Z,10.27
2018-02-24T13:18:15.400Z,9.82
2018-02-24T13:20:43.656Z,12.52
2018-02-24T13:23:11.923Z,9.52
2018-02-24T13:25:40.958Z,10.02
2018-02-24T13:28:09.231Z,10.93
2018-02-24T13:30:38.264Z,10.80
2018-02-24T13:33:07.130Z,9.13
2018-02-24T13:35:36.154Z,9.93
2018-02-24T13:38:04.432Z,10.27
2018-02-24T13:40:33.464Z,11.75
2018-02-24T13:43:01.723Z,9.70
2018-02-24T13:45:30.755Z,12.20
2018-02-24T13:47:59.025Z,11.55
2018-02-24T13:50:28.112Z,11.98
2018-02-24T13:52:57.233Z,10.00
2018-02-24T13:55:26.252Z,10.15
2018-02-24T13:57:54.516Z,12.63
2018-02-24T14:00:23.544Z,11.15
2018-02-24T14:02:51.880Z,9.57
2018-02-24T14:05:20.117Z,8.80
2018-02-24T14:07:48.415Z,9.90
2018-02-24T14:10:16.668Z,9.80
2018-02-24T14:12:44.941Z,9.07
2018-02-24T14:15:13.211Z,13.30
2018-02-24T14:17:41.520Z,10.60
2018-02-24T14:20:09.784Z,11.18
2018-02-24T14:22:38.049Z,11.57
2018-02-24T14:25:06.331Z,10.55
2018-02-24T14:27:34.593Z,12.68
2018-02-24T14:30:03.665Z,11.63
2018-02-24T14:32:31.946Z,11.65
2018-02-24T14:35:00.227Z,10.90
2018-02-24T14:37:28.497Z,11.07
2018-02-24T14:39:56.795Z,11.38
2018-02-24T14:42:25.050Z,8.30
2018-02-24T14:44:54.084Z,9.80
2018-02-24T14:47:22.366Z,9.50
2018-02-24T14:49:50.644Z,10.35
2018-02-24T14:52:18.908Z,11.05
2018-02-24T14:54:47.958Z,13.90
2018-02-24T14:57:16.226Z,11.73
2018-02-24T14:59:44.497Z,9.48
2018-02-24T15:02:13.529Z,9.43
2018-02-24T15:04:41.813Z,9.30
2018-02-24T15:07:10.092Z,9.95
2018-02-24T15:09:38.380Z,10.15
2018-02-24T15:12:06.637Z,11.20
2018-02-24T15:14:34.939Z,10.30
2018-02-24T15:17:03.256Z,10.65
2018-02-24T15:19:32.264Z,11.98
2018-02-24T15:22:00.532Z,14.32
2018-02-24T15:24:29.569Z,10.02
2018-02-24T15:26:57.841Z,9.63
2018-02-24T15:29:26.110Z,9.18
2018-02-24T15:31:55.148Z,9.88
2018-02-24T15:34:23.413Z,9.52
2018-02-24T15:36:52.449Z,12.13
2018-02-24T15:39:20.721Z,9.60
2018-02-24T15:41:48.985Z,11.70
2018-02-24T15:44:18.384Z,10.73
2018-02-24T15:46:46.653Z,11.38
2018-02-24T15:49:14.916Z,11.75
2018-02-24T15:51:43.191Z,10.63
2018-02-24T15:54:12.233Z,10.23
2018-02-24T15:56:40.498Z,9.70
2018-02-24T15:59:08.779Z,13.65
2018-02-24T16:01:37.817Z,11.38
2018-02-24T16:04:06.094Z,9.73
2018-02-24T16:06:34.361Z,9.05
2018-02-24T16:09:03.411Z,9.88
2018-02-24T16:11:31.680Z,10.82
2018-02-24T16:13:59.954Z,10.82
2018-02-24T16:16:28.223Z,9.25
2018-02-24T16:18:57.277Z,11.65
2018-02-24T16:21:25.561Z,9.85
2018-02-24T16:23:53.870Z,10.88
2018-02-24T16:26:22.156Z,10.13
2018-02-24T16:28:50.448Z,10.93
2018-02-24T16:31:18.712Z,9.20
2018-02-24T16:33:58.253Z,9.63
2018-02-24T16:36:26.521Z,9.55
2018-02-24T16:38:59.541Z,11.00
2018-02-24T16:41:27.809Z,10.80
2018-02-24T16:43:56.080Z,11.80
2018-02-24T16:46:24.350Z,9.90
2018-02-24T16:48:52.620Z,12.07
2018-02-24T16:51:20.893Z,10.80
2018-02-24T16:53:49.168Z,10.95
2018-02-24T16:56:17.437Z,10.10
2018-02-24T16:58:46.480Z,12.48
2018-02-24T17:01:15.665Z,10.35
2018-02-24T17:03:43.951Z,10.20
2018-02-24T17:06:12.241Z,12.73
2018-02-24T17:08:41.333Z,12.32
2018-02-24T17:11:09.599Z,11.63
2018-02-24T17:13:38.641Z,9.63
2018-02-24T17:16:06.914Z,10.82
2018-02-24T17:18:35.176Z,10.60
2018-02-24T17:21:04.222Z,10.35
2018-02-24T17:23:32.496Z,10.07
2018-02-24T17:26:00.764Z,10.38
2018-02-24T17:28:29.792Z,10.00
2018-02-24T17:30:58.057Z,10.93
2018-02-24T17:33:27.085Z,10.27
2018-02-24T17:35:55.373Z,10.40
2018-02-24T17:38:23.718Z,12.20
2018-02-24T17:40:52.049Z,11.20
2018-02-24T17:43:20.948Z,10.93
2018-02-24T17:45:49.213Z,11.77
2018-02-24T17:48:19.175Z,10.32
2018-02-24T17:50:47.453Z,11.63
2018-02-24T17:53:15.721Z,10.13
2018-02-24T17:55:44.769Z,12.15
2018-02-24T17:58:13.024Z,10.63
2018-02-24T18:00:41.310Z,10.00
2018-02-24T18:03:10.332Z,10.90
2018-02-24T18:05:38.613Z,10.35
2018-02-24T18:08:06.887Z,11.27
2018-02-24T18:10:35.925Z,13.70
2018-02-24T18:13:04.189Z,12.95
2018-02-24T18:15:32.465Z,10.73
2018-02-24T18:18:01.489Z,10.23
2018-02-24T18:20:29.756Z,10.55
2018-02-24T18:23:00.474Z,10.70
2018-02-24T18:25:28.744Z,10.02
2018-02-24T18:27:57.014Z,10.70
2018-02-24T18:30:25.284Z,10.27
2018-02-24T18:32:53.553Z,10.95
2018-02-24T18:35:22.598Z,11.18
2018-02-24T18:37:50.865Z,9.48
2018-02-24T18:40:19.131Z,10.90
2018-02-24T18:42:48.174Z,11.30
2018-02-24T18:45:16.454Z,11.12
2018-02-24T18:47:44.722Z,12.30
2018-02-24T18:50:13.770Z,14.38
2018-02-24T18:52:42.041Z,9.80
2018-02-24T18:55:18.069Z,10.00
2018-02-24T18:57:46.348Z,10.02
2018-02-24T19:00:14.626Z,11.20
2018-02-24T19:02:42.913Z,12.57
2018-02-24T19:05:11.183Z,11.18
2018-02-24T19:07:39.458Z,11.63
2018-02-24T19:10:07.720Z,11.40
2018-02-24T19:12:36.769Z,11.10
2018-02-24T19:15:05.031Z,10.93
2018-02-24T19:17:33.315Z,11.90
2018-02-24T19:20:01.597Z,10.70
2018-02-24T19:22:29.881Z,10.70
2018-02-24T19:24:59.847Z,11.75
2018-02-24T19:27:28.846Z,11.15
2018-02-24T19:29:57.148Z,11.88
2018-02-24T19:32:25.393Z,11.43
2018-02-24T19:34:53.653Z,14.55
2018-02-24T19:37:21.957Z,12.27
2018-02-24T19:39:50.998Z,10.65
2018-02-24T19:42:19.265Z,12.20
2018-02-24T19:44:47.555Z,11.73
2018-02-24T19:47:16.613Z,13.27
2018-02-24T19:49:44.894Z,12.37
2018-02-24T19:52:13.181Z,12.80
2018-02-24T19:54:41.454Z,12.18
2018-02-24T19:57:10.616Z,14.35
2018-02-24T19:59:39.653Z,11.05
2018-02-24T20:02:07.929Z,11.68
2018-02-24T20:04:36.966Z,12.93
2018-02-24T20:07:05.233Z,11.55
2018-02-24T20:09:33.509Z,11.65
2018-02-24T20:12:02.541Z,13.90
2018-02-24T20:14:30.845Z,14.15
2018-02-24T20:16:59.116Z,11.48
2018-02-24T20:19:27.405Z,12.63
2018-02-24T20:21:55.675Z,12.30
2018-02-24T20:24:23.948Z,12.00
2018-02-24T20:26:52.986Z,10.65
2018-02-24T20:29:21.274Z,13.20
2018-02-24T20:31:49.541Z,13.02
2018-02-24T20:34:18.568Z,12.65
2018-02-24T20:36:46.838Z,11.38
2018-02-24T20:39:15.118Z,12.40
2018-02-24T20:41:44.150Z,12.85
2018-02-24T20:44:12.415Z,11.77
2018-02-24T20:46:40.691Z,11.95
2018-02-24T20:49:08.965Z,12.45
2018-02-24T20:51:37.232Z,12.80
2018-02-24T20:54:05.504Z,13.45
2018-02-24T20:56:33.769Z,13.25
2018-02-24T20:59:02.049Z,11.73
2018-02-24T21:01:30.316Z,12.55
2018-02-24T21:03:58.594Z,12.85
2018-02-24T21:06:26.857Z,12.55
2018-02-24T21:08:55.124Z,11.18
2018-02-24T21:11:23.389Z,12.15
2018-02-24T21:13:51.665Z,12.23
2018-02-24T21:16:20.714Z,12.88
2018-02-24T21:18:48.989Z,11.80
2018-02-24T21:21:17.254Z,12.23
2018-02-24T21:23:46.307Z,13.80
2018-02-24T21:26:14.581Z,12.20
2018-02-24T21:28:42.849Z,13.10
2018-02-24T21:31:11.119Z,13.13
2018-02-24T21:33:40.178Z,11.15
2018-02-24T21:36:08.453Z,13.62
2018-02-24T21:38:36.727Z,13.73
2018-02-24T21:41:05.004Z,13.32
2018-02-24T21:43:33.270Z,13.30
2018-02-24T21:46:02.416Z,12.40
2018-02-24T21:48:30.691Z,13.50
2018-02-24T21:50:58.973Z,12.93
2018-02-24T21:53:28.015Z,12.25
2018-02-24T21:55:56.290Z,13.68
2018-02-24T21:58:24.548Z,12.40
2018-02-24T22:00:53.596Z,16.83
2018-02-24T22:03:21.857Z,12.37
2018-02-24T22:05:50.140Z,11.95
2018-02-24T22:08:18.404Z,12.77
2018-02-24T22:10:47.439Z,15.25
2018-02-24T22:13:15.709Z,12.20
2018-02-24T22:15:44.744Z,13.20
2018-02-24T22:18:13.004Z,12.48
2018-02-24T22:20:42.057Z,14.48
2018-02-24T22:23:10.353Z,13.93
2018-02-24T22:25:38.628Z,13.00
2018-02-24T22:28:06.891Z,14.00
2018-02-24T22:30:35.168Z,13.77
2018-02-24T22:33:04.214Z,13.48
2018-02-24T22:35:32.484Z,13.55
2018-02-24T22:38:00.751Z,14.50
2018-02-24T22:40:29.796Z,13.62
2018-02-24T22:42:58.066Z,13.35
2018-02-24T22:45:26.343Z,14.00
2018-02-24T22:48:00.235Z,14.25
2018-02-24T22:50:28.522Z,16.45
2018-02-24T22:52:56.793Z,16.25
2018-02-24T22:55:25.062Z,11.60
2018-02-24T22:57:53.346Z,14.40
2018-02-24T23:00:21.603Z,14.07
2018-02-24T23:02:49.879Z,13.85
2018-02-24T23:05:18.905Z,14.30
2018-02-24T23:07:47.178Z,13.95
2018-02-24T23:10:15.435Z,13.68
2018-02-24T23:12:43.722Z,12.23
2018-02-24T23:15:11.992Z,13.20
2018-02-24T23:17:40.272Z,13.62
2018-02-24T23:20:08.534Z,13.57
2018-02-24T23:22:36.818Z,13.75
2018-02-24T23:25:05.077Z,13.45
2018-02-24T23:27:34.121Z,13.05
2018-02-24T23:30:02.391Z,14.40
2018-02-24T23:32:30.661Z,13.68
2018-02-24T23:34:59.726Z,12.40
2018-02-24T23:37:28.009Z,13.65
2018-02-24T23:39:56.277Z,13.68
2018-02-24T23:42:24.560Z,12.60
2018-02-24T23:44:52.837Z,12.52
2018-02-24T23:47:21.880Z,12.37
2018-02-24T23:49:50.153Z,13.38
2018-02-24T23:52:18.440Z,11.60
2018-02-24T23:54:46.702Z,13.30
2018-02-24T23:57:15.754Z,14.87
2018-02-24T23:59:44.026Z,13.35
